This is the latest recevied weather packets stored in our database for station/object KD9IXX-13. If no packets are shown the sender has not sent any weather packets the latest 10 day(s).
| Time | Temp. | Humidity | Pressure | Rain* | Wind** | Luminosity | Snow |
|---|---|---|---|---|---|---|---|
| 1777763702 | 12.78° C | 45% | 1018.5 hPa | 0 mm | - | 68 W/m² | - |
| 1777763402 | 13.33° C | 41% | 1018.4 hPa | 0 mm | - | 95 W/m² | - |
| 1777763102 | 13.33° C | 41% | 1018.8 hPa | 0 mm | - | 97 W/m² | - |
| 1777762802 | 13.33° C | 42% | 1018.5 hPa | 0 mm | - | 160 W/m² | - |
| 1777762502 | 13.33° C | 44% | 1018.7 hPa | 0 mm | - | 201 W/m² | - |
| 1777762202 | 12.22° C | 43% | 1018.8 hPa | 0 mm | - | 211 W/m² | - |
| 1777761902 | 12.22° C | 43% | 1018.6 hPa | 0 mm | - | 91 W/m² | - |
| 1777761602 | 12.22° C | 45% | 1018.6 hPa | 0 mm | - | 81 W/m² | - |
| 1777761302 | 13.33° C | 42% | 1018.6 hPa | 0 mm | - | 81 W/m² | - |
| 1777761002 | 12.22° C | 44% | 1018.7 hPa | 0 mm | - | 273 W/m² | - |
| 1777760702 | 12.22° C | 44% | 1018.6 hPa | 0 mm | - | 94 W/m² | - |
| 1777760402 | 12.22° C | 45% | 1018.7 hPa | 0 mm | - | 102 W/m² | - |
| 1777760102 | 13.33° C | 43% | 1018.7 hPa | 0 mm | - | 299 W/m² | - |
| 1777759802 | 13.33° C | 42% | 1018.5 hPa | 0 mm | - | 318 W/m² | - |
| 1777759502 | 13.33° C | 42% | 1018.6 hPa | 0 mm | - | 401 W/m² | - |
| 1777759202 | 12.78° C | 41% | 1018.5 hPa | 0 mm | - | 432 W/m² | - |
| 1777758902 | 12.78° C | 42% | 1018.6 hPa | 0 mm | - | 281 W/m² | - |
| 1777758602 | 12.22° C | 43% | 1018.7 hPa | 0 mm | - | 186 W/m² | - |
| 1777758302 | 13.33° C | 41% | 1018.7 hPa | 0 mm | - | 177 W/m² | - |
| 1777758002 | 12.22° C | 43% | 1018.9 hPa | 0 mm | - | 469 W/m² | - |
| 1777757702 | 12.78° C | 42% | 1018.8 hPa | 0 mm | - | 187 W/m² | - |
| 1777757402 | 12.78° C | 42% | 1018.5 hPa | 0 mm | - | 233 W/m² | - |
| 1777757102 | 12.22° C | 41% | 1018.7 hPa | 0 mm | - | 222 W/m² | - |
| 1777756802 | 13.33° C | 40% | 1018.8 hPa | 0 mm | - | 180 W/m² | - |
| 1777756501 | 12.78° C | 43% | 1018.7 hPa | 0 mm | - | 158 W/m² | - |
* Rain latest hour (hover to see other rain measurements)
** Current wind speed in m/s (hover to see current wind gust speed)